Time;durP1;ratioP1;P1;durP2;ratioP2;P2;SDS_P1;SDS_P2;PMS_P1;PMS_P2;Temp;Humidity;BMP_temperature;BMP_pressure;BME280_temperature;BME280_humidity;BME280_pressure;Samples;Min_cycle;Max_cycle;Signal;HPM_P1;HPM_P2
2023/06/16 00:01:06;;;;;;;5.73;4.70;;;;;;;;;;741983;185;920136;-62
2023/06/16 00:03:33;;;;;;;12.25;6.18;;;;;;;;;;743485;187;919334;-69
2023/06/16 00:06:03;;;;;;;8.70;5.60;;;;;;;;;;747672;185;917955;-68
2023/06/16 00:08:25;;;;;;;10.87;6.90;;;;;;;;;;743315;186;880823;-71
2023/06/16 00:10:50;;;;;;;7.78;5.53;;;;;;;;;;745606;189;816643;-62
2023/06/16 00:13:16;;;;;;;6.70;5.40;;;;;;;;;;747432;186;919547;-69
2023/06/16 00:15:42;;;;;;;10.73;5.87;;;;;;;;;;742214;186;917154;-69
2023/06/16 00:18:08;;;;;;;6.93;5.83;;;;;;;;;;744057;186;915157;-62
2023/06/16 00:20:34;;;;;;;7.80;5.43;;;;;;;;;;742157;189;939772;-69
2023/06/16 00:23:00;;;;;;;61.83;25.87;;;;;;;;;;740586;189;823735;-69
2023/06/16 00:25:25;;;;;;;27.73;11.33;;;;;;;;;;741071;186;862595;-70
2023/06/16 00:27:51;;;;;;;18.77;10.63;;;;;;;;;;743622;189;875214;-69
2023/06/16 00:30:17;;;;;;;19.40;11.03;;;;;;;;;;743373;187;817694;-62
2023/06/16 00:32:43;;;;;;;13.63;7.63;;;;;;;;;;742914;185;918815;-62
2023/06/16 00:35:09;;;;;;;10.90;8.20;;;;;;;;;;744263;185;920597;-62
2023/06/16 00:37:35;;;;;;;14.53;8.90;;;;;;;;;;746659;188;920379;-69
2023/06/16 00:40:00;;;;;;;10.47;7.07;;;;;;;;;;742842;186;916328;-62
2023/06/16 00:42:26;;;;;;;9.47;6.73;;;;;;;;;;743745;185;915063;-70
2023/06/16 00:44:52;;;;;;;7.20;5.75;;;;;;;;;;746580;187;916960;-67
2023/06/16 00:47:18;;;;;;;7.60;5.80;;;;;;;;;;744820;189;875364;-69
2023/06/16 00:49:44;;;;;;;10.93;5.93;;;;;;;;;;744253;186;918792;-70
2023/06/16 00:52:10;;;;;;;10.53;6.30;;;;;;;;;;742602;185;919495;-70
2023/06/16 00:54:36;;;;;;;33.53;11.80;;;;;;;;;;747378;185;815929;-62
2023/06/16 00:57:02;;;;;;;14.20;6.77;;;;;;;;;;742489;188;918892;-62
2023/06/16 00:59:28;;;;;;;8.70;6.10;;;;;;;;;;744546;186;852131;-62
2023/06/16 01:01:55;;;;;;;33.83;11.80;;;;;;;;;;747663;186;915611;-71
2023/06/16 01:04:20;;;;;;;23.40;9.90;;;;;;;;;;748162;185;625895;-64
2023/06/16 01:06:50;;;;;;;15.83;6.50;;;;;;;;;;748524;186;635545;-62
2023/06/16 01:09:31;;;;;;;9.83;5.43;;;;;;;;;;743312;185;918816;-63
2023/06/16 01:12:03;;;;;;;8.00;5.30;;;;;;;;;;744613;188;919635;-62
2023/06/16 01:14:28;;;;;;;6.10;5.07;;;;;;;;;;744916;189;819887;-62
2023/06/16 01:16:53;;;;;;;6.50;5.70;;;;;;;;;;741426;188;920927;-70
2023/06/16 01:19:19;;;;;;;13.07;5.50;;;;;;;;;;742070;189;920416;-70
2023/06/16 01:21:50;;;;;;;32.20;12.30;;;;;;;;;;747776;186;920729;-70
2023/06/16 01:24:18;;;;;;;15.03;7.67;;;;;;;;;;741613;187;814951;-63
2023/06/16 01:26:46;;;;;;;24.17;10.77;;;;;;;;;;741088;185;922298;-71
2023/06/16 01:29:11;;;;;;;16.60;7.97;;;;;;;;;;742221;185;933935;-70
2023/06/16 01:31:36;;;;;;;22.93;10.23;;;;;;;;;;748349;189;918757;-62
2023/06/16 01:34:02;;;;;;;9.30;6.10;;;;;;;;;;742068;186;918271;-70
2023/06/16 01:36:30;;;;;;;9.97;7.20;;;;;;;;;;742751;186;936343;-70
2023/06/16 01:38:54;;;;;;;9.63;6.70;;;;;;;;;;745396;189;920693;-63
2023/06/16 01:41:20;;;;;;;7.77;6.00;;;;;;;;;;741228;189;917711;-64
2023/06/16 01:43:46;;;;;;;15.73;5.60;;;;;;;;;;743792;187;906670;-71
2023/06/16 01:46:12;;;;;;;10.33;6.80;;;;;;;;;;744048;188;929854;-63
2023/06/16 01:48:37;;;;;;;8.87;6.20;;;;;;;;;;747287;185;919292;-64
2023/06/16 01:51:03;;;;;;;14.27;8.07;;;;;;;;;;743215;185;919012;-71
2023/06/16 01:53:29;;;;;;;8.13;6.12;;;;;;;;;;741429;185;916481;-63
2023/06/16 01:55:55;;;;;;;11.00;5.43;;;;;;;;;;749627;186;911590;-63
2023/06/16 01:58:21;;;;;;;6.83;5.23;;;;;;;;;;744164;187;915880;-71
2023/06/16 02:00:47;;;;;;;11.70;6.53;;;;;;;;;;745718;188;918822;-72
2023/06/16 02:03:15;;;;;;;7.77;5.20;;;;;;;;;;747826;186;919113;-63
2023/06/16 02:05:40;;;;;;;7.50;5.50;;;;;;;;;;743170;185;918140;-72
2023/06/16 02:08:06;;;;;;;11.93;6.40;;;;;;;;;;742913;187;919490;-64
2023/06/16 02:10:32;;;;;;;14.20;7.67;;;;;;;;;;742674;185;919279;-63
2023/06/16 02:12:57;;;;;;;21.65;12.07;;;;;;;;;;748734;185;908788;-72
2023/06/16 02:15:23;;;;;;;20.90;9.20;;;;;;;;;;742710;186;921158;-63
2023/06/16 02:17:51;;;;;;;11.10;7.20;;;;;;;;;;745015;188;818609;-72
2023/06/16 02:20:15;;;;;;;15.03;8.37;;;;;;;;;;749317;188;798503;-71
2023/06/16 02:22:41;;;;;;;10.20;5.77;;;;;;;;;;743446;187;918783;-62
2023/06/16 02:25:07;;;;;;;10.60;7.30;;;;;;;;;;742162;189;919625;-73
2023/06/16 02:27:33;;;;;;;18.07;6.80;;;;;;;;;;748730;186;919554;-74
2023/06/16 02:29:59;;;;;;;12.75;7.18;;;;;;;;;;752884;176;918482;-73
2023/06/16 02:32:25;;;;;;;8.90;5.10;;;;;;;;;;778288;179;918960;-73
2023/06/16 02:34:52;;;;;;;9.90;5.83;;;;;;;;;;768616;181;1021161;-73
2023/06/16 02:37:16;;;;;;;13.65;6.40;;;;;;;;;;767235;183;882101;-74
2023/06/16 02:39:42;;;;;;;10.90;6.00;;;;;;;;;;772012;180;918271;-74
2023/06/16 02:42:08;;;;;;;14.60;7.47;;;;;;;;;;758839;183;1021369;-73
2023/06/16 02:44:34;;;;;;;28.60;11.43;;;;;;;;;;749205;187;906792;-73
2023/06/16 02:47:01;;;;;;;11.37;6.53;;;;;;;;;;760251;182;992767;-73
2023/06/16 02:49:26;;;;;;;6.85;5.82;;;;;;;;;;761359;182;1021229;-73
2023/06/16 02:51:51;;;;;;;10.90;5.50;;;;;;;;;;768443;182;918011;-73
2023/06/16 02:54:17;;;;;;;11.83;6.60;;;;;;;;;;766204;182;1122769;-74
2023/06/16 02:56:43;;;;;;;9.20;6.90;;;;;;;;;;761326;180;1020346;-72
2023/06/16 02:59:10;;;;;;;368.52;137.23;;;;;;;;;;768726;182;923038;-73
2023/06/16 03:01:36;;;;;;;88.37;34.30;;;;;;;;;;764476;182;1124024;-73
2023/06/16 03:04:03;;;;;;;22.80;12.00;;;;;;;;;;760268;182;1013200;-72
2023/06/16 03:06:29;;;;;;;15.00;6.67;;;;;;;;;;761183;182;1021597;-73
2023/06/16 03:08:53;;;;;;;10.60;7.10;;;;;;;;;;766409;182;914500;-73
2023/06/16 03:11:19;;;;;;;11.13;6.50;;;;;;;;;;761732;182;916843;-73
2023/06/16 03:13:45;;;;;;;18.33;7.33;;;;;;;;;;763093;182;919597;-73
2023/06/16 03:16:12;;;;;;;14.27;7.15;;;;;;;;;;767244;182;923354;-74
2023/06/16 03:18:37;;;;;;;8.77;6.90;;;;;;;;;;760093;182;973224;-75
2023/06/16 03:21:02;;;;;;;9.77;7.57;;;;;;;;;;762862;182;960404;-74
2023/06/16 03:23:28;;;;;;;15.50;7.03;;;;;;;;;;780218;175;797529;-74
2023/06/16 03:25:54;;;;;;;11.30;7.80;;;;;;;;;;779300;177;923243;-73
2023/06/16 03:28:20;;;;;;;9.10;6.10;;;;;;;;;;770003;180;931700;-73
2023/06/16 03:30:46;;;;;;;13.27;8.10;;;;;;;;;;781729;178;987865;-73
2023/06/16 03:33:12;;;;;;;13.80;7.90;;;;;;;;;;778644;178;863839;-77
2023/06/16 03:35:38;;;;;;;13.70;8.73;;;;;;;;;;780736;176;1019482;-77
2023/06/16 03:38:03;;;;;;;12.33;8.00;;;;;;;;;;771877;180;921835;-77
2023/06/16 03:40:30;;;;;;;27.27;9.27;;;;;;;;;;776089;181;926388;-77
2023/06/16 03:42:55;;;;;;;15.00;8.50;;;;;;;;;;772711;181;896624;-76
2023/06/16 03:45:21;;;;;;;12.83;8.63;;;;;;;;;;772944;181;902552;-76
2023/06/16 03:47:47;;;;;;;9.83;6.73;;;;;;;;;;778268;181;942458;-76
2023/06/16 03:50:13;;;;;;;20.43;9.10;;;;;;;;;;769686;181;914615;-77
2023/06/16 03:52:39;;;;;;;24.30;8.40;;;;;;;;;;768094;181;858887;-77
2023/06/16 03:55:05;;;;;;;19.57;12.87;;;;;;;;;;769279;180;915664;-77
2023/06/16 03:57:30;;;;;;;38.30;17.90;;;;;;;;;;776171;181;859577;-78
2023/06/16 03:59:56;;;;;;;35.30;17.27;;;;;;;;;;767946;181;918658;-76
2023/06/16 04:02:22;;;;;;;17.80;11.40;;;;;;;;;;771021;180;914727;-78
2023/06/16 04:04:48;;;;;;;18.43;9.73;;;;;;;;;;775128;181;918596;-77
2023/06/16 04:07:14;;;;;;;11.90;8.73;;;;;;;;;;772388;181;920261;-76
2023/06/16 04:09:40;;;;;;;13.60;9.50;;;;;;;;;;772260;178;921756;-78
2023/06/16 04:12:06;;;;;;;15.90;10.60;;;;;;;;;;775667;180;870253;-77
2023/06/16 04:14:32;;;;;;;18.40;10.13;;;;;;;;;;769190;180;862631;-77
2023/06/16 04:16:58;;;;;;;14.97;10.47;;;;;;;;;;767250;181;918226;-77
2023/06/16 04:19:26;;;;;;;13.87;11.37;;;;;;;;;;776806;179;916464;-77
2023/06/16 04:21:50;;;;;;;18.97;11.10;;;;;;;;;;778589;180;916971;-77
2023/06/16 04:24:16;;;;;;;14.07;10.63;;;;;;;;;;764555;181;921426;-78
2023/06/16 04:26:42;;;;;;;15.43;10.93;;;;;;;;;;773800;180;901372;-78
2023/06/16 04:29:08;;;;;;;13.90;10.27;;;;;;;;;;778979;181;921858;-79
2023/06/16 04:31:35;;;;;;;20.20;12.87;;;;;;;;;;767594;181;1019979;-78
2023/06/16 04:34:02;;;;;;;16.00;13.35;;;;;;;;;;772064;181;815855;-77
2023/06/16 04:36:29;;;;;;;16.03;12.70;;;;;;;;;;781041;181;825895;-77
2023/06/16 04:38:52;;;;;;;20.00;13.70;;;;;;;;;;767882;180;810855;-78
2023/06/16 04:41:17;;;;;;;18.27;12.63;;;;;;;;;;772640;181;1108908;-78
2023/06/16 04:43:43;;;;;;;13.23;11.13;;;;;;;;;;774739;181;865449;-77
2023/06/16 04:46:09;;;;;;;13.37;10.70;;;;;;;;;;780152;178;816136;-77
2023/06/16 04:48:36;;;;;;;16.57;10.80;;;;;;;;;;774239;181;922122;-77
2023/06/16 04:51:01;;;;;;;11.20;9.70;;;;;;;;;;760629;182;1025242;-77
2023/06/16 04:53:28;;;;;;;14.63;10.33;;;;;;;;;;780567;181;710142;-77
2023/06/16 04:55:53;;;;;;;13.30;10.10;;;;;;;;;;764825;181;1020951;-78
2023/06/16 04:58:19;;;;;;;15.73;9.40;;;;;;;;;;768110;181;917124;-76
2023/06/16 05:00:45;;;;;;;12.83;8.53;;;;;;;;;;773757;181;817742;-77
2023/06/16 05:03:10;;;;;;;13.80;9.47;;;;;;;;;;768337;181;917752;-77
2023/06/16 05:05:36;;;;;;;13.17;10.50;;;;;;;;;;767054;181;852074;-77
2023/06/16 05:08:02;;;;;;;11.10;9.90;;;;;;;;;;773784;181;918125;-77
2023/06/16 05:10:28;;;;;;;11.80;9.90;;;;;;;;;;763813;180;915974;-78
2023/06/16 05:12:54;;;;;;;16.13;10.23;;;;;;;;;;768883;181;928372;-77
2023/06/16 05:15:20;;;;;;;12.10;10.13;;;;;;;;;;761152;182;920503;-77
2023/06/16 05:17:46;;;;;;;10.50;9.30;;;;;;;;;;755061;185;917506;-78
2023/06/16 05:20:12;;;;;;;11.60;9.50;;;;;;;;;;776079;178;917195;-78
2023/06/16 05:22:37;;;;;;;13.07;9.90;;;;;;;;;;767137;180;919895;-78
2023/06/16 05:25:03;;;;;;;13.33;10.40;;;;;;;;;;778629;180;911885;-77
2023/06/16 05:27:29;;;;;;;12.23;9.43;;;;;;;;;;769565;180;918933;-78
2023/06/16 05:29:55;;;;;;;12.30;10.17;;;;;;;;;;768760;181;918734;-78
2023/06/16 05:32:21;;;;;;;10.60;9.50;;;;;;;;;;778108;181;1020166;-77
2023/06/16 05:34:47;;;;;;;10.67;8.83;;;;;;;;;;772236;181;994273;-77
2023/06/16 05:37:15;;;;;;;13.73;9.30;;;;;;;;;;766686;181;919235;-77
2023/06/16 05:39:42;;;;;;;14.70;9.90;;;;;;;;;;767626;181;918841;-78
2023/06/16 05:42:09;;;;;;;12.50;9.50;;;;;;;;;;779381;181;1021801;-79
2023/06/16 05:44:34;;;;;;;11.47;9.33;;;;;;;;;;772301;181;919386;-79
2023/06/16 05:47:00;;;;;;;11.45;9.27;;;;;;;;;;773106;181;946646;-79
2023/06/16 05:49:25;;;;;;;10.83;8.57;;;;;;;;;;777325;181;940357;-79
2023/06/16 05:51:52;;;;;;;9.73;7.67;;;;;;;;;;770420;181;917358;-79
2023/06/16 05:54:17;;;;;;;13.00;8.23;;;;;;;;;;774318;180;935665;-79
2023/06/16 05:56:43;;;;;;;16.40;8.48;;;;;;;;;;773339;181;1021217;-79
2023/06/16 05:59:09;;;;;;;8.67;7.37;;;;;;;;;;776042;177;919025;-78
2023/06/16 06:01:35;;;;;;;9.40;6.43;;;;;;;;;;774276;180;919639;-78
2023/06/16 06:04:01;;;;;;;14.63;8.20;;;;;;;;;;771914;181;919213;-79
2023/06/16 06:06:28;;;;;;;8.67;6.40;;;;;;;;;;774530;181;920661;-78
2023/06/16 06:08:53;;;;;;;12.25;6.80;;;;;;;;;;766237;181;915319;-78
2023/06/16 06:11:19;;;;;;;7.63;6.67;;;;;;;;;;773519;181;923568;-78
2023/06/16 06:13:44;;;;;;;13.20;8.03;;;;;;;;;;775466;181;914401;-79
2023/06/16 06:16:11;;;;;;;11.73;7.43;;;;;;;;;;772046;181;921800;-79
2023/06/16 06:18:36;;;;;;;8.80;6.90;;;;;;;;;;773381;181;818124;-79
2023/06/16 06:21:02;;;;;;;9.80;7.37;;;;;;;;;;771778;181;917431;-78
2023/06/16 06:23:28;;;;;;;8.77;6.53;;;;;;;;;;771029;181;936785;-79
2023/06/16 06:25:54;;;;;;;10.13;6.73;;;;;;;;;;770413;181;916335;-78
2023/06/16 06:28:20;;;;;;;11.00;6.50;;;;;;;;;;765832;181;916640;-79
2023/06/16 06:30:46;;;;;;;8.82;6.75;;;;;;;;;;780511;181;814923;-79
2023/06/16 06:33:11;;;;;;;9.20;6.90;;;;;;;;;;778933;179;816515;-79
2023/06/16 06:35:37;;;;;;;7.83;6.77;;;;;;;;;;772143;180;930852;-79
2023/06/16 06:38:04;;;;;;;11.50;6.97;;;;;;;;;;779735;181;816315;-79
2023/06/16 06:40:31;;;;;;;11.10;7.27;;;;;;;;;;773368;181;912957;-78
2023/06/16 06:42:55;;;;;;;12.60;7.23;;;;;;;;;;769542;179;912700;-78
2023/06/16 06:45:21;;;;;;;9.07;6.80;;;;;;;;;;772992;181;921541;-79
2023/06/16 06:47:47;;;;;;;8.53;6.57;;;;;;;;;;774403;181;831883;-78
2023/06/16 06:50:12;;;;;;;8.00;6.10;;;;;;;;;;775348;181;816262;-79
2023/06/16 06:52:38;;;;;;;10.00;7.73;;;;;;;;;;769341;181;872130;-78
2023/06/16 06:55:04;;;;;;;9.83;6.47;;;;;;;;;;781380;180;838315;-79
2023/06/16 06:57:30;;;;;;;8.50;5.73;;;;;;;;;;771131;180;943241;-79
2023/06/16 06:59:56;;;;;;;14.43;6.63;;;;;;;;;;766346;180;913243;-78
2023/06/16 07:02:22;;;;;;;9.83;5.63;;;;;;;;;;774772;180;1030465;-77
2023/06/16 07:04:48;;;;;;;7.07;5.10;;;;;;;;;;774944;181;924017;-80
2023/06/16 07:07:14;;;;;;;11.43;7.20;;;;;;;;;;772703;181;918724;-79
2023/06/16 07:09:40;;;;;;;8.10;6.13;;;;;;;;;;777822;181;915142;-79
2023/06/16 07:12:07;;;;;;;8.90;5.60;;;;;;;;;;773394;181;915020;-79
2023/06/16 07:14:32;;;;;;;8.57;5.77;;;;;;;;;;761097;182;918510;-78
2023/06/16 07:16:58;;;;;;;9.33;6.10;;;;;;;;;;772030;181;909710;-78
2023/06/16 07:19:26;;;;;;;8.73;5.90;;;;;;;;;;784586;178;919669;-78
2023/06/16 07:21:49;;;;;;;7.77;5.70;;;;;;;;;;760331;183;915205;-79
2023/06/16 07:24:15;;;;;;;8.90;6.70;;;;;;;;;;765388;181;918722;-78
2023/06/16 07:26:41;;;;;;;7.80;5.73;;;;;;;;;;774872;181;910025;-79
2023/06/16 07:29:07;;;;;;;8.10;6.27;;;;;;;;;;767293;181;921145;-78
2023/06/16 07:31:33;;;;;;;8.23;5.63;;;;;;;;;;760667;181;912606;-78
2023/06/16 07:33:59;;;;;;;7.30;4.50;;;;;;;;;;768004;181;917948;-78
2023/06/16 07:36:25;;;;;;;7.57;6.60;;;;;;;;;;774616;181;917923;-78
2023/06/16 07:38:51;;;;;;;9.07;6.33;;;;;;;;;;762055;182;921710;-79
2023/06/16 07:41:16;;;;;;;8.37;5.03;;;;;;;;;;767619;181;917741;-78
2023/06/16 07:43:42;;;;;;;7.97;5.20;;;;;;;;;;776105;179;919212;-78
2023/06/16 07:46:08;;;;;;;6.43;5.67;;;;;;;;;;776282;179;917633;-79
2023/06/16 07:48:34;;;;;;;9.00;6.70;;;;;;;;;;770058;181;918981;-78
2023/06/16 07:51:00;;;;;;;17.00;8.10;;;;;;;;;;778267;181;810521;-79
2023/06/16 07:53:26;;;;;;;11.70;5.57;;;;;;;;;;770921;181;919335;-78
2023/06/16 07:55:52;;;;;;;10.07;6.30;;;;;;;;;;765638;180;919540;-79
2023/06/16 07:58:19;;;;;;;8.80;5.53;;;;;;;;;;770236;182;919214;-78
2023/06/16 08:00:43;;;;;;;8.20;5.60;;;;;;;;;;764295;181;1022007;-79
2023/06/16 08:03:09;;;;;;;7.75;4.40;;;;;;;;;;748401;185;937814;-79
2023/06/16 08:05:35;;;;;;;9.13;4.90;;;;;;;;;;774117;180;917861;-78
2023/06/16 08:08:01;;;;;;;7.80;4.97;;;;;;;;;;774496;180;924692;-78
2023/06/16 08:10:27;;;;;;;6.60;4.47;;;;;;;;;;770842;181;918735;-78
2023/06/16 08:12:53;;;;;;;6.67;4.60;;;;;;;;;;765746;180;962244;-79
2023/06/16 08:15:20;;;;;;;7.97;4.47;;;;;;;;;;779135;181;919095;-77
2023/06/16 08:17:44;;;;;;;7.40;4.80;;;;;;;;;;764327;181;919272;-79
2023/06/16 08:20:11;;;;;;;5.90;4.70;;;;;;;;;;765883;182;1020792;-78
2023/06/16 08:22:36;;;;;;;9.53;4.50;;;;;;;;;;773343;182;815632;-78
2023/06/16 08:25:04;;;;;;;8.17;4.97;;;;;;;;;;775493;181;831439;-78
2023/06/16 08:27:28;;;;;;;10.23;5.07;;;;;;;;;;776515;181;818229;-78
2023/06/16 08:29:54;;;;;;;6.73;4.63;;;;;;;;;;774579;181;917197;-78
2023/06/16 08:32:20;;;;;;;5.97;4.97;;;;;;;;;;768781;181;920579;-78
2023/06/16 08:34:46;;;;;;;6.87;4.80;;;;;;;;;;769042;181;918427;-78
2023/06/16 08:37:12;;;;;;;5.60;4.03;;;;;;;;;;769277;181;916096;-78
2023/06/16 08:39:38;;;;;;;5.40;4.23;;;;;;;;;;767894;180;917485;-78
2023/06/16 08:42:04;;;;;;;11.07;4.80;;;;;;;;;;772951;180;1023295;-78
2023/06/16 08:44:30;;;;;;;15.10;5.20;;;;;;;;;;776743;181;816193;-78
2023/06/16 08:46:57;;;;;;;8.57;4.93;;;;;;;;;;780502;181;786995;-78
2023/06/16 08:49:22;;;;;;;7.87;5.00;;;;;;;;;;769595;181;918025;-78
2023/06/16 08:51:48;;;;;;;7.20;4.28;;;;;;;;;;752827;180;2653015;-78
2023/06/16 08:54:13;;;;;;;8.50;4.27;;;;;;;;;;780371;181;741030;-78
2023/06/16 08:56:39;;;;;;;6.30;4.10;;;;;;;;;;774136;179;1012714;-78
2023/06/16 08:59:05;;;;;;;7.03;4.50;;;;;;;;;;771830;179;938302;-78
2023/06/16 09:01:33;;;;;;;10.30;4.70;;;;;;;;;;767989;181;918963;-78
2023/06/16 09:03:57;;;;;;;6.97;4.33;;;;;;;;;;775391;178;918272;-79
2023/06/16 09:06:22;;;;;;;6.60;4.97;;;;;;;;;;761327;181;1024651;-78
2023/06/16 09:08:48;;;;;;;5.53;4.00;;;;;;;;;;767413;182;904852;-78
2023/06/16 09:11:20;;;;;;;6.30;4.60;;;;;;;;;;768197;181;945901;-78
2023/06/16 09:13:46;;;;;;;6.30;4.20;;;;;;;;;;775245;181;913137;-79
2023/06/16 09:16:12;;;;;;;6.33;4.80;;;;;;;;;;770335;181;876355;-78
2023/06/16 09:18:40;;;;;;;7.67;4.87;;;;;;;;;;763870;181;923968;-78
2023/06/16 09:21:05;;;;;;;9.83;4.63;;;;;;;;;;772209;181;897095;-78
2023/06/16 09:23:29;;;;;;;5.77;4.27;;;;;;;;;;766665;180;918431;-78
2023/06/16 09:25:56;;;;;;;7.10;4.68;;;;;;;;;;767982;179;918770;-78
2023/06/16 09:28:21;;;;;;;6.60;5.30;;;;;;;;;;781938;180;891833;-78
2023/06/16 09:30:47;;;;;;;6.33;4.40;;;;;;;;;;773483;181;914851;-79
2023/06/16 09:33:13;;;;;;;6.03;4.70;;;;;;;;;;767653;181;919374;-79
2023/06/16 09:35:40;;;;;;;5.80;4.53;;;;;;;;;;768477;182;918740;-79
2023/06/16 09:38:06;;;;;;;8.30;4.90;;;;;;;;;;773589;181;910289;-79
2023/06/16 09:40:32;;;;;;;14.80;4.83;;;;;;;;;;773190;181;851545;-78
2023/06/16 09:42:58;;;;;;;8.97;5.00;;;;;;;;;;773579;181;920976;-79
2023/06/16 09:45:24;;;;;;;5.87;4.53;;;;;;;;;;777251;180;919447;-78
2023/06/16 09:47:50;;;;;;;6.73;4.33;;;;;;;;;;771102;180;902599;-78
2023/06/16 09:50:15;;;;;;;11.30;4.87;;;;;;;;;;766315;180;921043;-78
2023/06/16 09:52:42;;;;;;;8.50;5.23;;;;;;;;;;769752;181;918395;-79
2023/06/16 09:55:07;;;;;;;5.40;3.73;;;;;;;;;;764792;181;918067;-79
2023/06/16 09:57:33;;;;;;;8.40;4.80;;;;;;;;;;757315;184;815463;-79
2023/06/16 09:59:59;;;;;;;9.30;4.90;;;;;;;;;;777503;181;920960;-78
2023/06/16 10:02:25;;;;;;;7.60;4.87;;;;;;;;;;770544;181;915515;-79
2023/06/16 10:04:52;;;;;;;5.93;4.22;;;;;;;;;;766720;181;1119062;-79
2023/06/16 10:07:17;;;;;;;6.87;5.17;;;;;;;;;;776089;180;827653;-79
2023/06/16 10:09:44;;;;;;;4.67;4.03;;;;;;;;;;782228;178;815180;-79
2023/06/16 10:12:09;;;;;;;6.67;4.60;;;;;;;;;;772883;180;920776;-78
2023/06/16 10:14:35;;;;;;;7.33;5.27;;;;;;;;;;768756;180;995668;-78
2023/06/16 10:17:01;;;;;;;7.17;4.90;;;;;;;;;;776629;181;916331;-78
2023/06/16 10:19:27;;;;;;;6.40;4.63;;;;;;;;;;767709;181;925849;-79
2023/06/16 10:21:53;;;;;;;6.43;4.40;;;;;;;;;;762916;181;1021064;-79
2023/06/16 10:24:18;;;;;;;7.93;5.07;;;;;;;;;;777213;181;819587;-79
2023/06/16 10:26:44;;;;;;;6.67;4.57;;;;;;;;;;770049;181;816455;-79
2023/06/16 10:29:16;;;;;;;6.53;4.90;;;;;;;;;;763653;182;816576;-79
2023/06/16 10:31:36;;;;;;;5.53;4.10;;;;;;;;;;777079;181;1019684;-78
2023/06/16 10:34:02;;;;;;;7.23;4.70;;;;;;;;;;766801;181;919755;-78
2023/06/16 10:36:28;;;;;;;9.13;5.10;;;;;;;;;;774773;181;918937;-78
2023/06/16 10:38:59;;;;;;;5.90;4.60;;;;;;;;;;771001;181;910122;-78
2023/06/16 10:41:24;;;;;;;10.30;5.33;;;;;;;;;;777703;181;816268;-78
2023/06/16 10:43:50;;;;;;;4.97;4.20;;;;;;;;;;763766;179;918644;-78
2023/06/16 10:46:16;;;;;;;11.30;4.70;;;;;;;;;;771857;181;918672;-78
2023/06/16 10:48:48;;;;;;;9.63;5.40;;;;;;;;;;777813;181;919502;-78
2023/06/16 10:51:13;;;;;;;9.40;4.23;;;;;;;;;;769041;181;956297;-77
2023/06/16 10:53:39;;;;;;;13.27;4.73;;;;;;;;;;764853;181;919208;-78
2023/06/16 10:56:05;;;;;;;8.20;5.43;;;;;;;;;;773572;180;676902;-78
2023/06/16 10:58:32;;;;;;;8.93;5.10;;;;;;;;;;779254;181;1019726;-78
2023/06/16 11:00:58;;;;;;;6.30;4.57;;;;;;;;;;774964;181;891868;-78
2023/06/16 11:03:24;;;;;;;10.57;4.87;;;;;;;;;;766592;181;947582;-78
2023/06/16 11:05:50;;;;;;;7.90;5.17;;;;;;;;;;775560;181;909240;-78
2023/06/16 11:08:16;;;;;;;8.70;4.63;;;;;;;;;;775497;181;890486;-77
2023/06/16 11:10:48;;;;;;;7.63;4.17;;;;;;;;;;773076;181;1075012;-77
2023/06/16 11:13:13;;;;;;;9.33;4.80;;;;;;;;;;769916;180;1123811;-77
2023/06/16 11:15:39;;;;;;;7.40;5.30;;;;;;;;;;776874;181;832455;-77
2023/06/16 11:18:05;;;;;;;7.60;4.40;;;;;;;;;;764964;180;915686;-77
2023/06/16 11:20:31;;;;;;;4.70;3.87;;;;;;;;;;777882;180;916509;-78
2023/06/16 11:22:57;;;;;;;9.00;4.57;;;;;;;;;;780570;180;915360;-78
2023/06/16 11:25:23;;;;;;;9.20;4.47;;;;;;;;;;772928;180;914042;-78
2023/06/16 11:27:49;;;;;;;8.90;4.93;;;;;;;;;;769703;181;919708;-78
2023/06/16 11:30:15;;;;;;;9.77;5.07;;;;;;;;;;766823;181;917121;-79
2023/06/16 11:32:40;;;;;;;5.57;4.30;;;;;;;;;;774282;181;836952;-78
2023/06/16 11:35:06;;;;;;;13.30;4.53;;;;;;;;;;772314;181;1086924;-79
2023/06/16 11:37:39;;;;;;;6.60;4.07;;;;;;;;;;771863;181;919615;-79
2023/06/16 11:40:06;;;;;;;6.07;4.87;;;;;;;;;;775902;181;919888;-79
2023/06/16 11:42:31;;;;;;;7.77;4.93;;;;;;;;;;773530;181;1023730;-78
2023/06/16 11:44:57;;;;;;;6.30;4.83;;;;;;;;;;777916;180;817779;-78
2023/06/16 11:47:23;;;;;;;5.73;4.00;;;;;;;;;;768342;180;918360;-79
2023/06/16 11:49:49;;;;;;;5.80;4.83;;;;;;;;;;777573;181;815395;-79
2023/06/16 11:52:15;;;;;;;6.63;4.50;;;;;;;;;;770634;181;818342;-79
2023/06/16 11:54:41;;;;;;;5.37;4.68;;;;;;;;;;772320;181;816596;-78
2023/06/16 11:57:07;;;;;;;6.60;5.27;;;;;;;;;;776968;180;798877;-79
2023/06/16 11:59:32;;;;;;;8.43;4.73;;;;;;;;;;761925;180;921320;-79
2023/06/16 12:01:59;;;;;;;11.30;4.75;;;;;;;;;;771247;181;998631;-78
2023/06/16 12:04:24;;;;;;;7.10;4.97;;;;;;;;;;769438;181;916423;-78
2023/06/16 12:06:50;;;;;;;6.93;4.50;;;;;;;;;;771930;181;918892;-78
2023/06/16 12:09:19;;;;;;;5.90;5.30;;;;;;;;;;768958;181;1332531;-78
2023/06/16 12:11:44;;;;;;;6.57;4.60;;;;;;;;;;774833;180;818115;-78
2023/06/16 12:14:08;;;;;;;8.13;5.00;;;;;;;;;;779223;181;918074;-78
2023/06/16 12:16:34;;;;;;;7.90;4.60;;;;;;;;;;775923;181;919103;-78
2023/06/16 12:19:00;;;;;;;5.07;4.30;;;;;;;;;;775110;181;915006;-78
2023/06/16 12:21:25;;;;;;;10.53;4.80;;;;;;;;;;776701;181;927438;-78
2023/06/16 12:23:52;;;;;;;5.50;4.90;;;;;;;;;;773385;180;1020580;-79
2023/06/16 12:26:23;;;;;;;5.67;4.10;;;;;;;;;;769180;181;1024581;-79
2023/06/16 12:28:49;;;;;;;11.43;4.23;;;;;;;;;;774967;181;919787;-79
2023/06/16 12:31:15;;;;;;;6.70;4.70;;;;;;;;;;783059;175;867652;-78
2023/06/16 12:33:41;;;;;;;9.10;5.70;;;;;;;;;;772402;180;990648;-78
2023/06/16 12:36:08;;;;;;;6.53;4.83;;;;;;;;;;768062;181;1221548;-79
2023/06/16 12:38:34;;;;;;;8.60;4.37;;;;;;;;;;779064;179;1021307;-79
2023/06/16 12:41:00;;;;;;;6.20;4.10;;;;;;;;;;776258;181;819110;-79
2023/06/16 12:43:26;;;;;;;10.20;4.33;;;;;;;;;;779920;181;730943;-79
2023/06/16 12:45:52;;;;;;;6.23;4.70;;;;;;;;;;782816;181;706227;-78
2023/06/16 12:48:18;;;;;;;7.43;4.40;;;;;;;;;;776540;181;675534;-79
2023/06/16 12:50:43;;;;;;;6.03;4.50;;;;;;;;;;778456;181;615060;-79
2023/06/16 12:53:09;;;;;;;7.23;4.57;;;;;;;;;;777365;179;957831;-78
2023/06/16 12:55:35;;;;;;;6.93;4.80;;;;;;;;;;772088;181;1023604;-77
2023/06/16 12:58:01;;;;;;;4.67;4.00;;;;;;;;;;777250;181;938143;-78
2023/06/16 13:00:27;;;;;;;7.67;4.80;;;;;;;;;;771920;181;1010129;-78
2023/06/16 13:02:53;;;;;;;6.17;4.20;;;;;;;;;;775925;181;913701;-78
2023/06/16 13:05:20;;;;;;;6.77;4.40;;;;;;;;;;775544;180;813437;-78
2023/06/16 13:07:45;;;;;;;5.17;3.90;;;;;;;;;;768800;180;1013112;-78
2023/06/16 13:10:11;;;;;;;7.40;4.80;;;;;;;;;;773584;180;912755;-79
2023/06/16 13:12:37;;;;;;;10.57;5.67;;;;;;;;;;770522;181;916182;-79
2023/06/16 13:15:02;;;;;;;6.07;4.05;;;;;;;;;;767248;181;1015663;-78
2023/06/16 13:17:28;;;;;;;7.00;4.03;;;;;;;;;;766440;181;914117;-79
2023/06/16 13:19:54;;;;;;;8.53;4.80;;;;;;;;;;778823;178;912524;-79
2023/06/16 13:22:20;;;;;;;8.33;4.80;;;;;;;;;;771365;181;914855;-79
2023/06/16 13:24:46;;;;;;;6.73;4.57;;;;;;;;;;773710;181;915191;-79
2023/06/16 13:27:12;;;;;;;7.87;5.70;;;;;;;;;;773683;182;922027;-78
2023/06/16 13:29:38;;;;;;;5.47;4.00;;;;;;;;;;747136;186;1012120;-79
2023/06/16 13:32:04;;;;;;;9.40;4.57;;;;;;;;;;770928;181;987856;-78
2023/06/16 13:34:30;;;;;;;5.37;4.13;;;;;;;;;;776017;181;993323;-78
2023/06/16 13:36:56;;;;;;;6.30;4.70;;;;;;;;;;768617;181;907888;-78
2023/06/16 13:39:22;;;;;;;5.80;4.65;;;;;;;;;;772889;179;923104;-78
2023/06/16 13:41:47;;;;;;;7.30;4.20;;;;;;;;;;772175;180;914826;-79
2023/06/16 13:44:13;;;;;;;5.22;4.22;;;;;;;;;;768158;180;912360;-78
2023/06/16 13:46:39;;;;;;;8.83;4.30;;;;;;;;;;767450;180;916824;-80
2023/06/16 13:49:05;;;;;;;4.60;3.63;;;;;;;;;;777753;180;637735;-79
2023/06/16 13:51:31;;;;;;;6.63;4.10;;;;;;;;;;777897;180;641541;-78
2023/06/16 13:53:57;;;;;;;7.10;4.43;;;;;;;;;;773339;181;895875;-78
2023/06/16 13:56:23;;;;;;;5.80;4.07;;;;;;;;;;763105;181;1886166;-78
2023/06/16 13:58:49;;;;;;;6.57;4.10;;;;;;;;;;779826;181;1002171;-78
2023/06/16 14:01:15;;;;;;;8.57;4.50;;;;;;;;;;764942;181;1096615;-80
2023/06/16 14:03:46;;;;;;;5.00;3.87;;;;;;;;;;773989;181;973099;-78
2023/06/16 14:06:13;;;;;;;5.87;4.60;;;;;;;;;;775001;178;1030843;-81
2023/06/16 14:08:37;;;;;;;6.50;3.90;;;;;;;;;;773489;181;908696;-80
2023/06/16 14:11:03;;;;;;;6.40;4.13;;;;;;;;;;764493;181;840195;-81
2023/06/16 14:13:29;;;;;;;5.50;4.50;;;;;;;;;;770156;181;862773;-80